Sunderland, United Kingdom
Current Conditions -  °F | °C
As of 2:50 AM on Thursday 27 Nov 2014 (Local Time) from EGNT Reporting Station
Moderate Fog Moderate Fog  
Wind Chill: 43°   Ceiling: 600
Heat Index: 43°   Visibility: 0.5mi
Dew Point: 43°   Wind: 2mph
Humidity: 100%   Direction: 360°N
Pressure: 29.68"   Gusts: NA
Location:  54.9°N, 1.38°W
Report Text: EGNT 270250Z 36002KT 0800 FG BKN006 06/06 Q1005
Loading
Personal Weather Stations






























Interactive Weather Map New forecast layout! Learn more

10-Day Weather Forecast

Advertisements
Track Severe Weather on mobile